createdAt,value
2019-02-20T00:00:51.495Z,0
2019-02-20T00:01:51.474Z,0
2019-02-20T00:02:51.185Z,0
2019-02-20T00:03:51.425Z,0
2019-02-20T00:04:51.498Z,0
2019-02-20T00:05:51.379Z,0
2019-02-20T00:06:51.380Z,0
2019-02-20T00:07:51.372Z,0
2019-02-20T00:08:51.090Z,0
2019-02-20T00:09:51.326Z,0
2019-02-20T00:10:51.324Z,0
2019-02-20T00:11:50.786Z,0
2019-02-20T00:12:51.283Z,0
2019-02-20T00:13:50.993Z,0
2019-02-20T00:14:51.224Z,0
2019-02-20T00:15:51.215Z,0
2019-02-20T00:16:51.192Z,0
2019-02-20T00:17:50.923Z,0
2019-02-20T00:18:51.160Z,0
2019-02-20T00:19:50.941Z,0
2019-02-20T00:20:51.145Z,0
2019-02-20T00:21:51.113Z,0
2019-02-20T00:22:51.084Z,0
2019-02-20T00:23:51.070Z,0
2019-02-20T00:24:50.799Z,0
2019-02-20T00:25:51.033Z,0
2019-02-20T00:26:51.007Z,0
2019-02-20T00:27:50.993Z,0
2019-02-20T00:28:50.972Z,0
2019-02-20T00:29:50.715Z,0
2019-02-20T00:30:50.726Z,0
2019-02-20T00:31:50.964Z,0
2019-02-20T00:32:50.663Z,0
2019-02-20T00:33:50.639Z,0
2019-02-20T00:34:50.880Z,0
2019-02-20T00:35:50.616Z,0
2019-02-20T00:36:50.607Z,0
2019-02-20T00:37:50.571Z,0
2019-02-20T00:38:50.550Z,0
2019-02-20T00:39:50.790Z,0
2019-02-20T00:40:50.761Z,0
2019-02-20T00:41:50.760Z,0
2019-02-20T00:42:50.752Z,0
2019-02-20T00:43:50.708Z,0
2019-02-20T00:44:50.697Z,0
2019-02-20T00:45:50.667Z,0
2019-02-20T00:46:50.410Z,0
2019-02-20T00:47:50.684Z,0
2019-02-20T00:48:50.617Z,0
2019-02-20T00:49:50.607Z,0
2019-02-20T00:50:50.591Z,0
2019-02-20T00:51:50.569Z,0
2019-02-20T00:52:59.173Z,0
2019-02-20T00:53:50.287Z,0
2019-02-20T00:54:50.572Z,0
2019-02-20T00:55:50.491Z,0
2019-02-20T00:56:50.496Z,0
2019-02-20T00:57:50.511Z,0
2019-02-20T00:58:50.485Z,0
2019-02-20T00:59:49.949Z,0
2019-02-20T01:00:50.408Z,0
2019-02-20T01:01:50.399Z,0
2019-02-20T01:02:50.371Z,0
2019-02-20T01:03:49.860Z,0
2019-02-20T01:04:50.357Z,0
2019-02-20T01:05:50.311Z,0
2019-02-20T01:06:52.501Z,0
2019-02-20T01:07:50.038Z,0
2019-02-20T01:08:50.015Z,0
2019-02-20T01:09:50.288Z,0
2019-02-20T01:10:49.731Z,0
2019-02-20T01:11:50.257Z,0
2019-02-20T01:12:49.691Z,0
2019-02-20T01:13:50.171Z,0
2019-02-20T01:14:49.930Z,0
2019-02-20T01:15:50.137Z,0
2019-02-20T01:16:49.671Z,0
2019-02-20T01:17:50.095Z,0
2019-02-20T01:18:49.855Z,0
2019-02-20T01:19:49.835Z,0
2019-02-20T01:20:50.180Z,0
2019-02-20T01:21:50.064Z,0
2019-02-20T01:22:59.364Z,0
2019-02-20T01:23:50.009Z,0
2019-02-20T01:24:49.981Z,0
2019-02-20T01:25:49.957Z,0
2019-02-20T01:26:49.690Z,0
2019-02-20T01:27:49.674Z,0
2019-02-20T01:28:49.898Z,0
2019-02-20T01:29:49.937Z,0
2019-02-20T01:30:49.382Z,0
2019-02-20T01:31:49.876Z,0
2019-02-20T01:32:49.869Z,0
2019-02-20T01:33:49.809Z,0
2019-02-20T01:34:49.813Z,0
2019-02-20T01:35:49.532Z,0
2019-02-20T01:36:49.755Z,0
2019-02-20T01:37:49.753Z,0
2019-02-20T01:38:49.737Z,0
2019-02-20T01:39:51.911Z,0
2019-02-20T01:40:49.682Z,0
2019-02-20T01:41:49.665Z,0
2019-02-20T01:42:49.669Z,0
2019-02-20T01:43:49.399Z,0
2019-02-20T01:44:49.362Z,0
2019-02-20T01:45:49.593Z,0
2019-02-20T01:46:49.569Z,0
2019-02-20T01:47:49.578Z,0
2019-02-20T01:48:49.566Z,0
2019-02-20T01:49:49.530Z,0
2019-02-20T01:50:49.497Z,0
2019-02-20T01:51:49.856Z,0
2019-02-20T01:52:49.230Z,0
2019-02-20T01:53:49.206Z,0
2019-02-20T01:54:49.484Z,0
2019-02-20T01:55:49.164Z,0
2019-02-20T01:56:49.401Z,0
2019-02-20T01:57:49.376Z,0
2019-02-20T01:58:49.151Z,0
2019-02-20T01:59:49.119Z,0
2019-02-20T02:00:49.106Z,0
2019-02-20T02:01:49.321Z,0
2019-02-20T02:02:49.335Z,0
2019-02-20T02:03:49.300Z,0
2019-02-20T02:04:48.995Z,0
2019-02-20T02:05:49.238Z,0
2019-02-20T02:06:49.211Z,0
2019-02-20T02:07:49.194Z,0
2019-02-20T02:08:49.169Z,0
2019-02-20T02:09:49.220Z,0
2019-02-20T02:10:49.150Z,0
2019-02-20T02:11:49.135Z,0
2019-02-20T02:12:49.113Z,0
2019-02-20T02:13:49.085Z,0
2019-02-20T02:14:49.093Z,0
2019-02-20T02:15:49.052Z,0
2019-02-20T02:16:49.042Z,0
2019-02-20T02:17:48.781Z,0
2019-02-20T02:18:48.753Z,0
2019-02-20T02:19:48.986Z,0
2019-02-20T02:20:48.714Z,0
2019-02-20T02:21:48.938Z,0
2019-02-20T02:22:48.689Z,0
2019-02-20T02:23:50.132Z,0
2019-02-20T02:24:48.911Z,0
2019-02-20T02:25:48.867Z,0
2019-02-20T02:26:48.858Z,0
2019-02-20T02:27:48.594Z,0
2019-02-20T02:28:48.333Z,0
2019-02-20T02:29:48.789Z,0
2019-02-20T02:30:48.559Z,0
2019-02-20T02:31:48.776Z,0
2019-02-20T02:32:48.784Z,0
2019-02-20T02:33:48.293Z,0
2019-02-20T02:34:48.748Z,0
2019-02-20T02:35:48.698Z,0
2019-02-20T02:36:48.675Z,0
2019-02-20T02:37:48.687Z,0
2019-02-20T02:38:48.658Z,0
2019-02-20T02:39:48.622Z,0
2019-02-20T02:40:48.643Z,0
2019-02-20T02:41:49.697Z,0
2019-02-20T02:42:48.310Z,0
2019-02-20T02:43:48.664Z,0
2019-02-20T02:44:48.534Z,0
2019-02-20T02:45:47.758Z,0
2019-02-20T02:46:48.640Z,0
2019-02-20T02:47:48.529Z,0
2019-02-20T02:48:48.480Z,0
2019-02-20T02:49:48.436Z,0
2019-02-20T02:50:48.449Z,0
2019-02-20T02:51:48.406Z,0
2019-02-20T02:52:47.893Z,0
2019-02-20T02:53:48.123Z,0
2019-02-20T02:54:48.377Z,0
2019-02-20T02:55:48.384Z,0
2019-02-20T02:56:48.347Z,0
2019-02-20T02:57:48.361Z,0
2019-02-20T02:58:48.276Z,0
2019-02-20T02:59:48.304Z,0
2019-02-20T03:00:47.990Z,0
2019-02-20T03:01:48.275Z,0
2019-02-20T03:02:47.998Z,0
2019-02-20T03:03:48.177Z,0
2019-02-20T03:04:48.177Z,0
2019-02-20T03:05:48.142Z,0
2019-02-20T03:06:47.956Z,0
2019-02-20T03:07:47.873Z,0
2019-02-20T03:08:47.844Z,0
2019-02-20T03:09:48.117Z,0
2019-02-20T03:10:48.054Z,0
2019-02-20T03:11:48.059Z,0
2019-02-20T03:12:47.537Z,0
2019-02-20T03:13:47.742Z,0
2019-02-20T03:14:48.017Z,0
2019-02-20T03:15:47.998Z,0
2019-02-20T03:16:47.952Z,0
2019-02-20T03:17:48.056Z,0
2019-02-20T03:18:47.674Z,0
2019-02-20T03:19:47.699Z,0
2019-02-20T03:20:47.379Z,0
2019-02-20T03:21:48.015Z,0
2019-02-20T03:22:47.842Z,0
2019-02-20T03:23:49.818Z,0
2019-02-20T03:24:47.553Z,0
2019-02-20T03:25:47.799Z,0
2019-02-20T03:26:47.764Z,0
2019-02-20T03:27:47.512Z,0
2019-02-20T03:28:49.547Z,0
2019-02-20T03:29:47.460Z,0
2019-02-20T03:30:47.745Z,0
2019-02-20T03:31:47.715Z,0
2019-02-20T03:32:47.715Z,0
2019-02-20T03:33:47.663Z,0
2019-02-20T03:34:47.643Z,0
2019-02-20T03:35:47.149Z,0
2019-02-20T03:36:47.333Z,0
2019-02-20T03:37:47.582Z,0
2019-02-20T03:38:47.329Z,0
2019-02-20T03:39:47.559Z,0
2019-02-20T03:40:47.503Z,0
2019-02-20T03:41:48.889Z,0
2019-02-20T03:42:47.508Z,0
2019-02-20T03:43:47.211Z,0
2019-02-20T03:44:47.463Z,0
2019-02-20T03:45:47.430Z,0
2019-02-20T03:46:47.405Z,0
2019-02-20T03:47:47.411Z,0
2019-02-20T03:48:47.371Z,0
2019-02-20T03:49:47.346Z,0
2019-02-20T03:50:47.391Z,0
2019-02-20T03:51:47.312Z,0
2019-02-20T03:52:47.288Z,0
2019-02-20T03:53:58.278Z,0
2019-02-20T03:54:47.007Z,0
2019-02-20T03:55:47.256Z,0
2019-02-20T03:56:47.250Z,0
2019-02-20T03:57:46.708Z,0
2019-02-20T03:58:47.183Z,0
2019-02-20T03:59:47.185Z,0
2019-02-20T04:00:47.191Z,0
2019-02-20T04:01:46.633Z,0
2019-02-20T04:02:47.109Z,0
2019-02-20T04:03:47.097Z,0
2019-02-20T04:04:47.074Z,0
2019-02-20T04:05:47.051Z,0
2019-02-20T04:06:47.035Z,0
2019-02-20T04:07:46.529Z,0
2019-02-20T04:08:47.009Z,0
2019-02-20T04:09:47.030Z,0
2019-02-20T04:10:47.079Z,0
2019-02-20T04:11:46.946Z,0
2019-02-20T04:12:46.930Z,0
2019-02-20T04:13:46.900Z,0
2019-02-20T04:14:46.912Z,0
2019-02-20T04:15:46.882Z,0
2019-02-20T04:16:46.865Z,0
2019-02-20T04:17:46.835Z,0
2019-02-20T04:18:46.593Z,0
2019-02-20T04:19:46.624Z,0
2019-02-20T04:20:46.834Z,0
2019-02-20T04:21:46.769Z,0
2019-02-20T04:22:46.544Z,0
2019-02-20T04:23:46.750Z,0
2019-02-20T04:24:46.480Z,0
2019-02-20T04:25:46.703Z,0
2019-02-20T04:26:46.433Z,0
2019-02-20T04:27:46.404Z,0
2019-02-20T04:28:46.650Z,0
2019-02-20T04:29:46.634Z,0
2019-02-20T04:30:46.630Z,0
2019-02-20T04:31:46.356Z,0
2019-02-20T04:32:46.567Z,0
2019-02-20T04:33:46.553Z,0
2019-02-20T04:34:46.625Z,0
2019-02-20T04:35:46.606Z,0
2019-02-20T04:36:46.494Z,0
2019-02-20T04:37:46.501Z,0
2019-02-20T04:38:46.459Z,0
2019-02-20T04:39:46.452Z,0
2019-02-20T04:40:46.428Z,0
2019-02-20T04:41:46.407Z,0
2019-02-20T04:42:46.409Z,0
2019-02-20T04:43:46.115Z,0
2019-02-20T04:44:46.360Z,0
2019-02-20T04:45:46.355Z,0
2019-02-20T04:46:46.324Z,0
2019-02-20T04:47:46.303Z,0
2019-02-20T04:48:46.287Z,0
2019-02-20T04:49:46.272Z,0
2019-02-20T04:50:46.372Z,0
2019-02-20T04:51:46.242Z,0
2019-02-20T04:52:46.257Z,0
2019-02-20T04:53:46.189Z,0
2019-02-20T04:54:46.204Z,0
2019-02-20T04:55:45.911Z,0
2019-02-20T04:56:46.138Z,0
2019-02-20T04:57:46.439Z,0
2019-02-20T04:58:45.937Z,0
2019-02-20T04:59:45.832Z,0
2019-02-20T05:00:46.104Z,0
2019-02-20T05:01:46.054Z,0
2019-02-20T05:02:46.051Z,0
2019-02-20T05:03:46.024Z,0
2019-02-20T05:04:46.110Z,0
2019-02-20T05:05:45.992Z,0
2019-02-20T05:06:46.006Z,0
2019-02-20T05:07:45.963Z,0
2019-02-20T05:08:45.698Z,0
2019-02-20T05:09:46.921Z,0
2019-02-20T05:10:45.673Z,0
2019-02-20T05:11:45.924Z,0
2019-02-20T05:12:45.615Z,0
2019-02-20T05:13:45.839Z,0
2019-02-20T05:14:45.824Z,0
2019-02-20T05:15:45.819Z,0
2019-02-20T05:16:45.540Z,0
2019-02-20T05:17:45.526Z,0
2019-02-20T05:18:45.838Z,0
2019-02-20T05:19:45.728Z,0
2019-02-20T05:20:45.708Z,0
2019-02-20T05:21:45.479Z,0
2019-02-20T05:22:45.419Z,0
2019-02-20T05:23:47.556Z,0
2019-02-20T05:24:45.666Z,0
2019-02-20T05:25:45.636Z,0
2019-02-20T05:26:45.353Z,0
2019-02-20T05:27:45.346Z,0
2019-02-20T05:28:45.572Z,0
2019-02-20T05:29:45.560Z,0
2019-02-20T05:30:45.279Z,0
2019-02-20T05:31:45.522Z,0
2019-02-20T05:32:45.043Z,0
2019-02-20T05:33:45.635Z,0
2019-02-20T05:34:45.224Z,0
2019-02-20T05:35:45.226Z,0
2019-02-20T05:36:44.963Z,0
2019-02-20T05:37:46.890Z,0
2019-02-20T05:38:45.163Z,0
2019-02-20T05:39:45.413Z,0
2019-02-20T05:40:45.366Z,0
2019-02-20T05:41:45.345Z,0
2019-02-20T05:42:45.352Z,0
2019-02-20T05:43:45.327Z,0
2019-02-20T05:44:45.298Z,0
2019-02-20T05:45:45.035Z,0
2019-02-20T05:46:45.253Z,0
2019-02-20T05:47:45.242Z,0
2019-02-20T05:48:45.477Z,0
2019-02-20T05:49:45.224Z,0
2019-02-20T05:50:45.216Z,0
2019-02-20T05:51:45.177Z,0
2019-02-20T05:52:44.940Z,0
2019-02-20T05:53:44.953Z,0
2019-02-20T05:54:45.129Z,0
2019-02-20T05:55:45.104Z,0
2019-02-20T05:56:44.840Z,0
2019-02-20T05:57:46.072Z,0
2019-02-20T05:58:45.045Z,0
2019-02-20T05:59:44.777Z,0
2019-02-20T06:00:44.768Z,0
2019-02-20T06:01:44.774Z,0
2019-02-20T06:02:44.990Z,0
2019-02-20T06:03:44.965Z,0
2019-02-20T06:04:44.959Z,0
2019-02-20T06:05:44.928Z,0
2019-02-20T06:06:44.917Z,0
2019-02-20T06:07:44.910Z,0
2019-02-20T06:08:44.671Z,0
2019-02-20T06:09:44.873Z,0
2019-02-20T06:10:44.845Z,0
2019-02-20T06:11:44.823Z,0
2019-02-20T06:12:44.819Z,5
2019-02-20T06:13:44.781Z,5
2019-02-20T06:14:44.778Z,5
2019-02-20T06:15:45.542Z,5
2019-02-20T06:16:44.728Z,5
2019-02-20T06:17:44.713Z,5
2019-02-20T06:18:44.742Z,5
2019-02-20T06:19:44.673Z,5
2019-02-20T06:20:44.676Z,5
2019-02-20T06:21:44.705Z,10
2019-02-20T06:22:44.741Z,10
2019-02-20T06:23:44.609Z,10
2019-02-20T06:24:53.432Z,10
2019-02-20T06:25:44.676Z,15
2019-02-20T06:26:44.554Z,15
2019-02-20T06:27:44.540Z,15
2019-02-20T06:28:44.603Z,15
2019-02-20T06:29:44.258Z,15
2019-02-20T06:30:44.487Z,20
2019-02-20T06:31:44.231Z,20
2019-02-20T06:32:44.456Z,20
2019-02-20T06:33:44.444Z,20
2019-02-20T06:34:44.168Z,20
2019-02-20T06:35:44.405Z,20
2019-02-20T06:36:44.404Z,25
2019-02-20T06:37:44.138Z,25
2019-02-20T06:38:44.152Z,25
2019-02-20T06:39:43.845Z,25
2019-02-20T06:40:44.327Z,25
2019-02-20T06:41:48.598Z,25
2019-02-20T06:42:44.286Z,25
2019-02-20T06:43:44.411Z,30
2019-02-20T06:44:44.240Z,30
2019-02-20T06:45:44.228Z,30
2019-02-20T06:46:44.216Z,30
2019-02-20T06:47:44.187Z,35
2019-02-20T06:48:44.169Z,35
2019-02-20T06:49:44.159Z,35
2019-02-20T06:50:43.895Z,35
2019-02-20T06:51:43.885Z,35
2019-02-20T06:52:44.135Z,35
2019-02-20T06:53:44.082Z,35
2019-02-20T06:54:53.220Z,40
2019-02-20T06:55:44.048Z,40
2019-02-20T06:56:44.036Z,40
2019-02-20T06:57:44.042Z,40
2019-02-20T06:58:43.997Z,45
2019-02-20T06:59:43.743Z,45
2019-02-20T07:00:43.982Z,45
2019-02-20T07:01:43.453Z,50
2019-02-20T07:02:45.335Z,50
2019-02-20T07:03:43.908Z,55
2019-02-20T07:04:43.896Z,55
2019-02-20T07:05:43.642Z,60
2019-02-20T07:06:43.633Z,60
2019-02-20T07:07:43.610Z,60
2019-02-20T07:08:43.092Z,65
2019-02-20T07:09:43.816Z,65
2019-02-20T07:10:43.789Z,70
2019-02-20T07:11:43.820Z,70
2019-02-20T07:12:43.777Z,70
2019-02-20T07:13:43.761Z,70
2019-02-20T07:14:43.714Z,75
2019-02-20T07:15:43.714Z,75
2019-02-20T07:16:43.699Z,75
2019-02-20T07:17:43.683Z,75
2019-02-20T07:18:43.456Z,80
2019-02-20T07:19:43.633Z,80
2019-02-20T07:20:43.610Z,75
2019-02-20T07:21:43.609Z,75
2019-02-20T07:22:43.353Z,75
2019-02-20T07:23:43.339Z,80
2019-02-20T07:24:43.586Z,80
2019-02-20T07:25:43.540Z,85
2019-02-20T07:26:43.559Z,85
2019-02-20T07:27:43.496Z,90
2019-02-20T07:28:43.493Z,95
2019-02-20T07:29:43.217Z,100
2019-02-20T07:30:43.474Z,100
2019-02-20T07:31:43.458Z,95
2019-02-20T07:32:43.217Z,105
2019-02-20T07:33:43.432Z,105
2019-02-20T07:34:43.394Z,105
2019-02-20T07:35:43.381Z,110
2019-02-20T07:36:43.355Z,110
2019-02-20T07:37:43.338Z,110
2019-02-20T07:38:43.076Z,105
2019-02-20T07:39:43.309Z,100
2019-02-20T07:40:43.290Z,90
2019-02-20T07:41:43.020Z,90
2019-02-20T07:42:43.268Z,80
2019-02-20T07:43:42.995Z,75
2019-02-20T07:44:43.259Z,75
2019-02-20T07:45:42.959Z,75
2019-02-20T07:46:43.184Z,80
2019-02-20T07:47:43.162Z,90
2019-02-20T07:48:43.155Z,95
2019-02-20T07:49:42.889Z,105
2019-02-20T07:50:42.901Z,105
2019-02-20T07:51:43.132Z,105
2019-02-20T07:52:42.856Z,110
2019-02-20T07:53:42.584Z,110
2019-02-20T07:54:43.078Z,105
2019-02-20T07:55:42.544Z,100
2019-02-20T07:56:43.023Z,110
2019-02-20T07:57:43.024Z,110
2019-02-20T07:58:42.997Z,120
2019-02-20T07:59:42.978Z,130
2019-02-20T08:00:42.971Z,135
2019-02-20T08:01:42.958Z,135
2019-02-20T08:02:42.924Z,130
2019-02-20T08:03:42.910Z,130
2019-02-20T08:04:42.770Z,125
2019-02-20T08:05:42.639Z,125
2019-02-20T08:06:42.854Z,115
2019-02-20T08:07:42.627Z,110
2019-02-20T08:08:42.824Z,105
2019-02-20T08:09:42.662Z,110
2019-02-20T08:10:42.807Z,120
2019-02-20T08:11:42.796Z,130
2019-02-20T08:12:42.524Z,135
2019-02-20T08:13:49.002Z,135
2019-02-20T08:14:42.752Z,130
2019-02-20T08:15:42.717Z,130
2019-02-20T08:16:51.707Z,125
2019-02-20T08:17:42.685Z,125
2019-02-20T08:18:42.662Z,125
2019-02-20T08:19:42.662Z,125
2019-02-20T08:20:42.392Z,130
2019-02-20T08:21:42.619Z,135
2019-02-20T08:22:42.350Z,135
2019-02-20T08:23:42.584Z,140
2019-02-20T08:24:42.624Z,150
2019-02-20T08:25:42.548Z,155
2019-02-20T08:26:42.540Z,165
2019-02-20T08:27:42.525Z,175
2019-02-20T08:28:42.525Z,175
2019-02-20T08:29:42.251Z,180
2019-02-20T08:30:42.470Z,185
2019-02-20T08:31:42.457Z,190
2019-02-20T08:32:42.456Z,190
2019-02-20T08:33:42.188Z,190
2019-02-20T08:34:42.422Z,190
2019-02-20T08:35:42.155Z,195
2019-02-20T08:36:42.398Z,190
2019-02-20T08:37:42.122Z,185
2019-02-20T08:38:41.862Z,180
2019-02-20T08:39:42.321Z,180
2019-02-20T08:40:42.463Z,175
2019-02-20T08:41:42.317Z,175
2019-02-20T08:42:43.142Z,180
2019-02-20T08:43:41.771Z,180
2019-02-20T08:44:42.265Z,180
2019-02-20T08:45:42.245Z,185
2019-02-20T08:46:42.265Z,190
2019-02-20T08:47:41.945Z,185
2019-02-20T08:48:42.205Z,185
2019-02-20T08:49:41.996Z,185
2019-02-20T08:50:42.153Z,190
2019-02-20T08:51:42.138Z,195
2019-02-20T08:52:42.171Z,195
2019-02-20T08:53:41.887Z,200
2019-02-20T08:54:42.102Z,200
2019-02-20T08:55:42.090Z,205
2019-02-20T08:56:42.121Z,205
2019-02-20T08:57:42.063Z,205
2019-02-20T08:58:42.030Z,205
2019-02-20T08:59:41.781Z,200
2019-02-20T09:00:41.760Z,200
2019-02-20T09:01:41.744Z,200
2019-02-20T09:02:41.983Z,200
2019-02-20T09:03:41.712Z,200
2019-02-20T09:04:41.952Z,200
2019-02-20T09:05:43.751Z,195
2019-02-20T09:06:41.908Z,195
2019-02-20T09:07:41.891Z,195
2019-02-20T09:08:41.889Z,190
2019-02-20T09:09:41.865Z,190
2019-02-20T09:10:41.843Z,190
2019-02-20T09:11:41.584Z,185
2019-02-20T09:12:41.813Z,185
2019-02-20T09:13:41.798Z,185
2019-02-20T09:14:41.788Z,185
2019-02-20T09:15:41.772Z,180
2019-02-20T09:16:41.773Z,180
2019-02-20T09:17:42.907Z,175
2019-02-20T09:18:41.729Z,170
2019-02-20T09:19:41.765Z,165
2019-02-20T09:20:41.737Z,165
2019-02-20T09:21:41.691Z,165
2019-02-20T09:22:42.090Z,165
2019-02-20T09:23:41.958Z,165
2019-02-20T09:24:41.639Z,165
2019-02-20T09:25:50.789Z,165
2019-02-20T09:26:41.629Z,165
2019-02-20T09:27:41.355Z,170
2019-02-20T09:28:41.731Z,170
2019-02-20T09:29:41.573Z,175
2019-02-20T09:30:41.075Z,175
2019-02-20T09:31:41.569Z,175
2019-02-20T09:32:41.519Z,180
2019-02-20T09:33:41.502Z,180
2019-02-20T09:34:41.255Z,180
2019-02-20T09:35:41.474Z,180
2019-02-20T09:36:41.489Z,180
2019-02-20T09:37:41.451Z,175
2019-02-20T09:38:41.434Z,180
2019-02-20T09:39:43.184Z,180
2019-02-20T09:40:41.550Z,180
2019-02-20T09:41:41.397Z,175
2019-02-20T09:42:41.385Z,175
2019-02-20T09:43:41.386Z,175
2019-02-20T09:44:41.105Z,175
2019-02-20T09:45:51.296Z,175
2019-02-20T09:46:41.087Z,180
2019-02-20T09:47:41.323Z,180
2019-02-20T09:48:41.307Z,180
2019-02-20T09:49:41.290Z,180
2019-02-20T09:50:41.263Z,180
2019-02-20T09:51:41.247Z,185
2019-02-20T09:52:41.251Z,185
2019-02-20T09:53:41.239Z,185
2019-02-20T09:54:41.206Z,190
2019-02-20T09:55:40.941Z,185
2019-02-20T09:56:40.955Z,185
2019-02-20T09:57:41.173Z,180
2019-02-20T09:58:41.155Z,180
2019-02-20T09:59:40.896Z,180
2019-02-20T10:00:41.121Z,180
2019-02-20T10:01:41.725Z,175
2019-02-20T10:02:41.085Z,180
2019-02-20T10:03:40.829Z,175
2019-02-20T10:04:41.074Z,175
2019-02-20T10:05:41.063Z,175
2019-02-20T10:06:41.032Z,175
2019-02-20T10:07:40.523Z,180
2019-02-20T10:08:40.763Z,175
2019-02-20T10:09:41.266Z,175
2019-02-20T10:10:40.978Z,180
2019-02-20T10:11:40.974Z,175
2019-02-20T10:12:40.940Z,175
2019-02-20T10:13:41.038Z,175
2019-02-20T10:14:42.747Z,175
2019-02-20T10:15:40.914Z,180
2019-02-20T10:16:40.891Z,180
2019-02-20T10:17:40.635Z,185
2019-02-20T10:18:40.910Z,190
2019-02-20T10:19:40.845Z,190
2019-02-20T10:20:40.833Z,195
2019-02-20T10:21:40.826Z,195
2019-02-20T10:22:40.582Z,200
2019-02-20T10:23:40.549Z,195
2019-02-20T10:24:40.781Z,195
2019-02-20T10:25:40.781Z,195
2019-02-20T10:26:40.750Z,195
2019-02-20T10:27:40.500Z,200
2019-02-20T10:28:40.742Z,195
2019-02-20T10:29:40.716Z,200
2019-02-20T10:30:40.236Z,200
2019-02-20T10:31:40.691Z,200
2019-02-20T10:32:40.698Z,195
2019-02-20T10:33:40.679Z,200
2019-02-20T10:34:40.653Z,205
2019-02-20T10:35:40.636Z,210
2019-02-20T10:36:40.616Z,210
2019-02-20T10:37:40.638Z,215
2019-02-20T10:38:40.338Z,215
2019-02-20T10:39:40.579Z,220
2019-02-20T10:40:40.316Z,220
2019-02-20T10:41:40.598Z,220
2019-02-20T10:42:40.541Z,220
2019-02-20T10:43:40.548Z,220
2019-02-20T10:44:40.523Z,220
2019-02-20T10:45:40.504Z,215
2019-02-20T10:46:39.993Z,220
2019-02-20T10:47:39.976Z,210
2019-02-20T10:48:40.529Z,205
2019-02-20T10:49:40.452Z,200
2019-02-20T10:50:40.441Z,190
2019-02-20T10:51:40.210Z,180
2019-02-20T10:52:40.434Z,175
2019-02-20T10:53:40.399Z,170
2019-02-20T10:54:40.424Z,165
2019-02-20T10:55:40.121Z,170
2019-02-20T10:56:39.864Z,175
2019-02-20T10:57:39.852Z,180
2019-02-20T10:58:40.330Z,180
2019-02-20T10:59:40.068Z,185
2019-02-20T11:00:40.314Z,185
2019-02-20T11:01:40.306Z,180
2019-02-20T11:02:40.038Z,190
2019-02-20T11:03:40.003Z,200
2019-02-20T11:04:40.467Z,215
2019-02-20T11:05:40.599Z,230
2019-02-20T11:06:39.973Z,240
2019-02-20T11:07:39.959Z,250
2019-02-20T11:08:40.202Z,260
2019-02-20T11:09:41.464Z,260
2019-02-20T11:10:40.167Z,260
2019-02-20T11:11:40.152Z,265
2019-02-20T11:12:39.894Z,265
2019-02-20T11:13:40.135Z,265
2019-02-20T11:14:40.349Z,265
2019-02-20T11:15:40.117Z,270
2019-02-20T11:16:40.280Z,275
2019-02-20T11:17:42.133Z,275
2019-02-20T11:18:40.070Z,275
2019-02-20T11:19:39.797Z,275
2019-02-20T11:20:48.085Z,285
2019-02-20T11:21:39.773Z,285
2019-02-20T11:22:41.615Z,285
2019-02-20T11:23:39.999Z,300
2019-02-20T11:24:39.979Z,300
2019-02-20T11:25:40.840Z,300
2019-02-20T11:26:57.602Z,305
2019-02-20T11:27:41.875Z,325
2019-02-20T11:28:39.934Z,325
2019-02-20T11:29:39.696Z,335
2019-02-20T11:30:39.660Z,335
2019-02-20T11:31:39.642Z,315
2019-02-20T11:32:39.879Z,310
2019-02-20T11:33:40.054Z,305
2019-02-20T11:34:39.613Z,300
2019-02-20T11:35:39.344Z,310
2019-02-20T11:36:40.500Z,315
2019-02-20T11:37:39.585Z,320
2019-02-20T11:38:40.482Z,315
2019-02-20T11:39:47.159Z,310
2019-02-20T11:40:39.797Z,265
2019-02-20T11:41:39.785Z,230
2019-02-20T11:42:39.767Z,225
2019-02-20T11:43:39.744Z,260
2019-02-20T11:44:39.494Z,290
2019-02-20T11:45:39.230Z,290
2019-02-20T11:46:39.468Z,255
2019-02-20T11:47:40.563Z,265
2019-02-20T11:48:39.438Z,285
2019-02-20T11:49:39.683Z,290
2019-02-20T11:50:39.662Z,280
2019-02-20T11:51:39.658Z,275
2019-02-20T11:52:47.804Z,250
2019-02-20T11:53:46.368Z,225
2019-02-20T11:54:39.366Z,230
2019-02-20T11:55:39.605Z,235
2019-02-20T11:56:39.590Z,250
2019-02-20T11:57:39.328Z,270
2019-02-20T11:58:39.572Z,275
2019-02-20T11:59:39.315Z,290
2019-02-20T12:00:39.550Z,290
2019-02-20T12:01:39.525Z,305
2019-02-20T12:02:47.146Z,300
2019-02-20T12:03:39.504Z,295
2019-02-20T12:04:39.490Z,285
2019-02-20T12:05:39.245Z,280
2019-02-20T12:06:39.468Z,280
2019-02-20T12:07:39.454Z,270
2019-02-20T12:08:39.446Z,280
2019-02-20T12:09:39.201Z,285
2019-02-20T12:10:39.180Z,290
2019-02-20T12:11:39.409Z,290
2019-02-20T12:12:39.151Z,280
2019-02-20T12:13:39.386Z,270
2019-02-20T12:14:39.386Z,270
2019-02-20T12:15:39.405Z,270
2019-02-20T12:16:39.102Z,265
2019-02-20T12:17:39.340Z,250
2019-02-20T12:18:39.320Z,235
2019-02-20T12:19:39.440Z,230
2019-02-20T12:20:39.301Z,210
2019-02-20T12:21:39.037Z,200
2019-02-20T12:22:39.281Z,205
2019-02-20T12:23:46.305Z,225
2019-02-20T12:24:40.077Z,215
2019-02-20T12:25:39.235Z,195
2019-02-20T12:26:45.070Z,190
2019-02-20T12:27:40.323Z,185
2019-02-20T12:28:39.200Z,185
2019-02-20T12:29:39.673Z,165
2019-02-20T12:30:40.516Z,155
2019-02-20T12:31:39.183Z,145
2019-02-20T12:32:40.236Z,145
2019-02-20T12:33:38.883Z,150
2019-02-20T12:34:39.122Z,155
2019-02-20T12:35:38.863Z,160
2019-02-20T12:36:39.099Z,165
2019-02-20T12:37:38.849Z,170
2019-02-20T12:38:39.680Z,180
2019-02-20T12:39:39.062Z,185
2019-02-20T12:40:39.819Z,195
2019-02-20T12:41:40.304Z,195
2019-02-20T12:42:39.030Z,195
2019-02-20T12:43:39.014Z,200
2019-02-20T12:44:39.002Z,200
2019-02-20T12:45:38.983Z,200
2019-02-20T12:46:38.990Z,205
2019-02-20T12:47:38.955Z,200
2019-02-20T12:48:39.094Z,205
2019-02-20T12:49:38.692Z,210
2019-02-20T12:50:38.696Z,210
2019-02-20T12:51:38.910Z,215
2019-02-20T12:52:38.889Z,225
2019-02-20T12:53:38.877Z,235
2019-02-20T12:54:38.833Z,230
2019-02-20T12:55:38.853Z,225
2019-02-20T12:56:46.439Z,220
2019-02-20T12:57:38.834Z,220
2019-02-20T12:58:38.566Z,225
2019-02-20T12:59:39.253Z,225
2019-02-20T13:00:38.549Z,215
2019-02-20T13:01:38.779Z,215
2019-02-20T13:02:40.834Z,215
2019-02-20T13:03:38.512Z,225
2019-02-20T13:04:38.744Z,230
2019-02-20T13:05:38.729Z,235
2019-02-20T13:06:39.141Z,230
2019-02-20T13:07:40.364Z,225
2019-02-20T13:08:38.693Z,220
2019-02-20T13:09:38.675Z,210
2019-02-20T13:10:38.187Z,210
2019-02-20T13:11:38.870Z,205
2019-02-20T13:12:40.101Z,205
2019-02-20T13:13:38.623Z,205
2019-02-20T13:14:38.638Z,210
2019-02-20T13:15:38.403Z,210
2019-02-20T13:16:38.597Z,205
2019-02-20T13:17:38.644Z,200
2019-02-20T13:18:38.567Z,190
2019-02-20T13:19:38.552Z,185
2019-02-20T13:20:38.556Z,185
2019-02-20T13:21:38.286Z,185
2019-02-20T13:22:38.537Z,180
2019-02-20T13:23:38.269Z,175
2019-02-20T13:24:38.247Z,170
2019-02-20T13:25:38.614Z,165
2019-02-20T13:26:38.222Z,170
2019-02-20T13:27:40.096Z,180
2019-02-20T13:28:38.443Z,190
2019-02-20T13:29:38.432Z,200
2019-02-20T13:30:38.182Z,200
2019-02-20T13:31:38.444Z,200
2019-02-20T13:32:38.430Z,195
2019-02-20T13:33:38.394Z,195
2019-02-20T13:34:38.117Z,190
2019-02-20T13:35:38.485Z,185
2019-02-20T13:36:38.340Z,180
2019-02-20T13:37:38.331Z,180
2019-02-20T13:38:38.319Z,180
2019-02-20T13:39:38.422Z,180
2019-02-20T13:40:38.106Z,165
2019-02-20T13:41:38.315Z,160
2019-02-20T13:42:39.307Z,165
2019-02-20T13:43:38.292Z,170
2019-02-20T13:44:38.594Z,185
2019-02-20T13:45:38.715Z,180
2019-02-20T13:46:38.010Z,175
2019-02-20T13:47:40.238Z,180
2019-02-20T13:48:39.740Z,180
2019-02-20T13:49:37.964Z,185
2019-02-20T13:50:38.204Z,180
2019-02-20T13:51:38.204Z,180
2019-02-20T13:52:40.514Z,180
2019-02-20T13:53:46.187Z,175
2019-02-20T13:54:40.424Z,175
2019-02-20T13:55:43.754Z,175
2019-02-20T13:56:37.920Z,180
2019-02-20T13:57:38.140Z,185
2019-02-20T13:58:37.859Z,180
2019-02-20T13:59:38.451Z,180
2019-02-20T14:00:38.628Z,175
2019-02-20T14:01:37.814Z,175
2019-02-20T14:02:38.051Z,175
2019-02-20T14:03:37.828Z,170
2019-02-20T14:04:37.788Z,170
2019-02-20T14:05:38.016Z,165
2019-02-20T14:06:38.032Z,165
2019-02-20T14:07:39.534Z,160
2019-02-20T14:08:37.972Z,155
2019-02-20T14:09:37.733Z,150
2019-02-20T14:10:37.717Z,155
2019-02-20T14:11:37.702Z,155
2019-02-20T14:12:37.943Z,155
2019-02-20T14:13:37.653Z,155
2019-02-20T14:14:38.054Z,160
2019-02-20T14:15:38.530Z,165